sensor_id;sensor_type;location;lat;lon;timestamp;pressure;altitude;pressure_sealevel;temperature
81399;BMP280;70853;50.074;10.224;2023-11-19T00:01:49;98408.66;;;5.91
81399;BMP280;70853;50.074;10.224;2023-11-19T00:04:14;98406.00;;;5.97
81399;BMP280;70853;50.074;10.224;2023-11-19T00:06:40;98395.41;;;5.97
81399;BMP280;70853;50.074;10.224;2023-11-19T00:09:06;98383.84;;;6.00
81399;BMP280;70853;50.074;10.224;2023-11-19T00:11:33;98380.72;;;5.96
81399;BMP280;70853;50.074;10.224;2023-11-19T00:13:58;98378.31;;;5.98
81399;BMP280;70853;50.074;10.224;2023-11-19T00:16:24;98377.34;;;6.01
81399;BMP280;70853;50.074;10.224;2023-11-19T00:18:49;98345.84;;;5.97
81399;BMP280;70853;50.074;10.224;2023-11-19T00:21:15;98356.66;;;5.99
81399;BMP280;70853;50.074;10.224;2023-11-19T00:23:40;98352.56;;;5.98
81399;BMP280;70853;50.074;10.224;2023-11-19T00:26:06;98355.94;;;5.99
81399;BMP280;70853;50.074;10.224;2023-11-19T00:28:32;98361.84;;;6.05
81399;BMP280;70853;50.074;10.224;2023-11-19T00:30:58;98360.66;;;6.06
81399;BMP280;70853;50.074;10.224;2023-11-19T00:33:24;98357.56;;;6.02
81399;BMP280;70853;50.074;10.224;2023-11-19T00:35:50;98364.25;;;6.08
81399;BMP280;70853;50.074;10.224;2023-11-19T00:38:16;98362.09;;;6.07
81399;BMP280;70853;50.074;10.224;2023-11-19T00:40:41;98368.09;;;6.07
81399;BMP280;70853;50.074;10.224;2023-11-19T00:43:07;98355.81;;;6.10
81399;BMP280;70853;50.074;10.224;2023-11-19T00:45:32;98360.41;;;6.10
81399;BMP280;70853;50.074;10.224;2023-11-19T00:47:58;98341.59;;;6.13
81399;BMP280;70853;50.074;10.224;2023-11-19T00:50:25;98339.69;;;6.08
81399;BMP280;70853;50.074;10.224;2023-11-19T00:52:50;98353.41;;;6.12
81399;BMP280;70853;50.074;10.224;2023-11-19T00:55:17;98348.34;;;6.14
81399;BMP280;70853;50.074;10.224;2023-11-19T00:57:43;98346.59;;;6.17
81399;BMP280;70853;50.074;10.224;2023-11-19T01:00:09;98354.06;;;6.18
81399;BMP280;70853;50.074;10.224;2023-11-19T01:02:45;98338.94;;;6.13
81399;BMP280;70853;50.074;10.224;2023-11-19T01:05:11;98341.78;;;6.21
81399;BMP280;70853;50.074;10.224;2023-11-19T01:07:39;98333.81;;;6.21
81399;BMP280;70853;50.074;10.224;2023-11-19T01:10:05;98320.66;;;6.15
81399;BMP280;70853;50.074;10.224;2023-11-19T01:12:31;98347.53;;;6.25
81399;BMP280;70853;50.074;10.224;2023-11-19T01:14:57;98343.44;;;6.24
81399;BMP280;70853;50.074;10.224;2023-11-19T01:17:23;98348.72;;;6.24
81399;BMP280;70853;50.074;10.224;2023-11-19T01:19:48;98331.84;;;6.27
81399;BMP280;70853;50.074;10.224;2023-11-19T01:22:15;98332.84;;;6.24
81399;BMP280;70853;50.074;10.224;2023-11-19T01:24:40;98334.69;;;6.29
81399;BMP280;70853;50.074;10.224;2023-11-19T01:27:06;98325.56;;;6.30
81399;BMP280;70853;50.074;10.224;2023-11-19T01:29:31;98330.84;;;6.30
81399;BMP280;70853;50.074;10.224;2023-11-19T01:31:57;98324.09;;;6.29
81399;BMP280;70853;50.074;10.224;2023-11-19T01:34:22;98323.59;;;6.30
81399;BMP280;70853;50.074;10.224;2023-11-19T01:36:49;98320.06;;;6.28
81399;BMP280;70853;50.074;10.224;2023-11-19T01:39:15;98314.66;;;6.33
81399;BMP280;70853;50.074;10.224;2023-11-19T01:41:41;98308.00;;;6.27
81399;BMP280;70853;50.074;10.224;2023-11-19T01:44:07;98301.41;;;6.33
81399;BMP280;70853;50.074;10.224;2023-11-19T01:46:33;98304.53;;;6.37
81399;BMP280;70853;50.074;10.224;2023-11-19T01:49:00;98300.44;;;6.36
81399;BMP280;70853;50.074;10.224;2023-11-19T01:51:26;98293.91;;;6.37
81399;BMP280;70853;50.074;10.224;2023-11-19T01:53:52;98284.03;;;6.38
81399;BMP280;70853;50.074;10.224;2023-11-19T01:56:18;98287.41;;;6.38
81399;BMP280;70853;50.074;10.224;2023-11-19T01:58:44;98281.63;;;6.40
81399;BMP280;70853;50.074;10.224;2023-11-19T02:01:11;98280.91;;;6.39
81399;BMP280;70853;50.074;10.224;2023-11-19T02:03:37;98274.63;;;6.42
81399;BMP280;70853;50.074;10.224;2023-11-19T02:06:03;98271.50;;;6.38
81399;BMP280;70853;50.074;10.224;2023-11-19T02:08:30;98274.81;;;6.44
81399;BMP280;70853;50.074;10.224;2023-11-19T02:10:55;98280.34;;;6.47
81399;BMP280;70853;50.074;10.224;2023-11-19T02:13:26;98273.59;;;6.45
81399;BMP280;70853;50.074;10.224;2023-11-19T02:15:52;98272.47;;;6.41
81399;BMP280;70853;50.074;10.224;2023-11-19T02:20:44;98275.34;;;6.43
81399;BMP280;70853;50.074;10.224;2023-11-19T02:23:13;98272.63;;;6.49
81399;BMP280;70853;50.074;10.224;2023-11-19T02:25:40;98269.69;;;6.52
81399;BMP280;70853;50.074;10.224;2023-11-19T02:28:06;98249.72;;;6.51
81399;BMP280;70853;50.074;10.224;2023-11-19T02:30:32;98242.97;;;6.50
81399;BMP280;70853;50.074;10.224;2023-11-19T02:33:01;98237.94;;;6.47
81399;BMP280;70853;50.074;10.224;2023-11-19T02:35:31;98228.00;;;6.53
81399;BMP280;70853;50.074;10.224;2023-11-19T02:37:58;98209.47;;;6.53
81399;BMP280;70853;50.074;10.224;2023-11-19T02:40:24;98208.47;;;6.56
81399;BMP280;70853;50.074;10.224;2023-11-19T02:42:51;98205.09;;;6.55
81399;BMP280;70853;50.074;10.224;2023-11-19T02:45:18;98201.75;;;6.55
81399;BMP280;70853;50.074;10.224;2023-11-19T02:47:43;98199.81;;;6.55
81399;BMP280;70853;50.074;10.224;2023-11-19T02:50:10;98184.06;;;6.57
81399;BMP280;70853;50.074;10.224;2023-11-19T02:52:42;98171.53;;;6.58
81399;BMP280;70853;50.074;10.224;2023-11-19T02:55:08;98163.44;;;6.56
81399;BMP280;70853;50.074;10.224;2023-11-19T02:57:41;98170.06;;;6.62
81399;BMP280;70853;50.074;10.224;2023-11-19T03:00:14;98161.38;;;6.62
81399;BMP280;70853;50.074;10.224;2023-11-19T03:02:40;98162.09;;;6.62
81399;BMP280;70853;50.074;10.224;2023-11-19T03:05:13;98170.53;;;6.61
81399;BMP280;70853;50.074;10.224;2023-11-19T03:07:43;98178.22;;;6.64
81399;BMP280;70853;50.074;10.224;2023-11-19T03:10:10;98171.69;;;6.65
81399;BMP280;70853;50.074;10.224;2023-11-19T03:12:43;98176.50;;;6.67
81399;BMP280;70853;50.074;10.224;2023-11-19T03:15:09;98167.34;;;6.68
81399;BMP280;70853;50.074;10.224;2023-11-19T03:17:36;98166.31;;;6.71
81399;BMP280;70853;50.074;10.224;2023-11-19T03:20:05;98171.63;;;6.71
81399;BMP280;70853;50.074;10.224;2023-11-19T03:22:32;98163.75;;;6.65
81399;BMP280;70853;50.074;10.224;2023-11-19T03:24:59;98159.78;;;6.72
81399;BMP280;70853;50.074;10.224;2023-11-19T03:27:25;98150.84;;;6.75
81399;BMP280;70853;50.074;10.224;2023-11-19T03:29:51;98147.97;;;6.73
81399;BMP280;70853;50.074;10.224;2023-11-19T03:32:16;98134.50;;;6.71
81399;BMP280;70853;50.074;10.224;2023-11-19T03:34:41;98142.19;;;6.74
81399;BMP280;70853;50.074;10.224;2023-11-19T03:37:07;98137.59;;;6.75
81399;BMP280;70853;50.074;10.224;2023-11-19T03:39:33;98140.75;;;6.73
81399;BMP280;70853;50.074;10.224;2023-11-19T03:41:59;98144.06;;;6.79
81399;BMP280;70853;50.074;10.224;2023-11-19T03:44:26;98145.97;;;6.79
81399;BMP280;70853;50.074;10.224;2023-11-19T03:46:52;98157.31;;;6.79
81399;BMP280;70853;50.074;10.224;2023-11-19T03:49:17;98166.19;;;6.82
81399;BMP280;70853;50.074;10.224;2023-11-19T03:51:43;98155.59;;;6.82
81399;BMP280;70853;50.074;10.224;2023-11-19T03:54:09;98129.16;;;6.76
81399;BMP280;70853;50.074;10.224;2023-11-19T03:56:34;98129.97;;;6.84
81399;BMP280;70853;50.074;10.224;2023-11-19T03:59:00;98124.66;;;6.84
81399;BMP280;70853;50.074;10.224;2023-11-19T04:01:26;98119.78;;;6.89
81399;BMP280;70853;50.074;10.224;2023-11-19T04:03:51;98103.78;;;6.81
81399;BMP280;70853;50.074;10.224;2023-11-19T04:06:18;98128.03;;;6.85
81399;BMP280;70853;50.074;10.224;2023-11-19T04:08:43;98119.78;;;6.89
81399;BMP280;70853;50.074;10.224;2023-11-19T04:11:10;98121.22;;;6.90
81399;BMP280;70853;50.074;10.224;2023-11-19T04:13:35;98124.09;;;6.92
81399;BMP280;70853;50.074;10.224;2023-11-19T04:16:01;98122.16;;;6.92
81399;BMP280;70853;50.074;10.224;2023-11-19T04:18:27;98128.38;;;6.95
81399;BMP280;70853;50.074;10.224;2023-11-19T04:20:52;98105.75;;;6.94
81399;BMP280;70853;50.074;10.224;2023-11-19T04:23:17;98106.66;;;6.96
81399;BMP280;70853;50.074;10.224;2023-11-19T04:25:43;98107.19;;;6.95
81399;BMP280;70853;50.074;10.224;2023-11-19T04:28:08;98103.16;;;6.88
81399;BMP280;70853;50.074;10.224;2023-11-19T04:30:34;98109.81;;;6.95
81399;BMP280;70853;50.074;10.224;2023-11-19T04:33:01;98109.31;;;6.96
81399;BMP280;70853;50.074;10.224;2023-11-19T04:35:26;98099.84;;;7.01
81399;BMP280;70853;50.074;10.224;2023-11-19T04:37:52;98084.03;;;6.95
81399;BMP280;70853;50.074;10.224;2023-11-19T04:40:17;98094.03;;;7.02
81399;BMP280;70853;50.074;10.224;2023-11-19T04:42:48;98097.41;;;7.03
81399;BMP280;70853;50.074;10.224;2023-11-19T04:45:13;98091.59;;;7.04
81399;BMP280;70853;50.074;10.224;2023-11-19T04:47:39;98095.47;;;7.03
81399;BMP280;70853;50.074;10.224;2023-11-19T04:50:04;98097.84;;;7.07
81399;BMP280;70853;50.074;10.224;2023-11-19T04:52:30;98105.97;;;7.09
81399;BMP280;70853;50.074;10.224;2023-11-19T04:54:56;98116.06;;;7.10
81399;BMP280;70853;50.074;10.224;2023-11-19T04:57:21;98099.63;;;7.12
81399;BMP280;70853;50.074;10.224;2023-11-19T04:59:47;98097.19;;;7.14
81399;BMP280;70853;50.074;10.224;2023-11-19T05:02:12;98097.69;;;7.12
81399;BMP280;70853;50.074;10.224;2023-11-19T05:04:42;98077.19;;;7.13
81399;BMP280;70853;50.074;10.224;2023-11-19T05:07:09;98069.25;;;7.13
81399;BMP280;70853;50.074;10.224;2023-11-19T05:09:34;98073.53;;;7.16
81399;BMP280;70853;50.074;10.224;2023-11-19T05:12:00;98069.97;;;7.13
81399;BMP280;70853;50.074;10.224;2023-11-19T05:14:27;98075.69;;;7.17
81399;BMP280;70853;50.074;10.224;2023-11-19T05:16:53;98084.38;;;7.18
81399;BMP280;70853;50.074;10.224;2023-11-19T05:19:18;98076.47;;;7.12
81399;BMP280;70853;50.074;10.224;2023-11-19T05:21:44;98066.28;;;7.16
81399;BMP280;70853;50.074;10.224;2023-11-19T05:24:10;98078.13;;;7.15
81399;BMP280;70853;50.074;10.224;2023-11-19T05:26:36;98089.34;;;7.21
81399;BMP280;70853;50.074;10.224;2023-11-19T05:29:02;98083.03;;;7.25
81399;BMP280;70853;50.074;10.224;2023-11-19T05:31:27;98076.59;;;7.20
81399;BMP280;70853;50.074;10.224;2023-11-19T05:33:53;98065.69;;;7.24
81399;BMP280;70853;50.074;10.224;2023-11-19T05:36:18;98070.69;;;7.27
81399;BMP280;70853;50.074;10.224;2023-11-19T05:38:44;98086.31;;;7.31
81399;BMP280;70853;50.074;10.224;2023-11-19T05:41:10;98076.44;;;7.31
81399;BMP280;70853;50.074;10.224;2023-11-19T05:43:35;98073.25;;;7.33
81399;BMP280;70853;50.074;10.224;2023-11-19T05:46:01;98069.16;;;7.32
81399;BMP280;70853;50.074;10.224;2023-11-19T05:48:27;98079.25;;;7.33
81399;BMP280;70853;50.074;10.224;2023-11-19T05:50:53;98075.38;;;7.34
81399;BMP280;70853;50.074;10.224;2023-11-19T05:53:20;98067.03;;;7.30
81399;BMP280;70853;50.074;10.224;2023-11-19T05:55:45;98087.94;;;7.47
81399;BMP280;70853;50.074;10.224;2023-11-19T05:58:30;98085.69;;;7.51
81399;BMP280;70853;50.074;10.224;2023-11-19T06:00:56;98070.06;;;7.47
81399;BMP280;70853;50.074;10.224;2023-11-19T06:03:22;98070.38;;;7.57
81399;BMP280;70853;50.074;10.224;2023-11-19T06:05:48;98071.72;;;7.64
81399;BMP280;70853;50.074;10.224;2023-11-19T06:08:14;98053.72;;;7.56
81399;BMP280;70853;50.074;10.224;2023-11-19T06:10:43;98051.19;;;7.64
81399;BMP280;70853;50.074;10.224;2023-11-19T06:13:11;98053.91;;;7.72
81399;BMP280;70853;50.074;10.224;2023-11-19T06:15:37;98051.06;;;7.70
81399;BMP280;70853;50.074;10.224;2023-11-19T06:18:03;98062.81;;;7.74
81399;BMP280;70853;50.074;10.224;2023-11-19T06:20:29;98053.28;;;7.79
81399;BMP280;70853;50.074;10.224;2023-11-19T06:22:56;98050.63;;;7.79
81399;BMP280;70853;50.074;10.224;2023-11-19T06:25:22;98042.28;;;7.75
81399;BMP280;70853;50.074;10.224;2023-11-19T06:27:52;98058.72;;;7.86
81399;BMP280;70853;50.074;10.224;2023-11-19T06:30:19;98062.38;;;7.83
81399;BMP280;70853;50.074;10.224;2023-11-19T06:32:45;98064.19;;;7.88
81399;BMP280;70853;50.074;10.224;2023-11-19T06:35:11;98068.28;;;7.89
81399;BMP280;70853;50.074;10.224;2023-11-19T06:37:40;98056.63;;;7.92
81399;BMP280;70853;50.074;10.224;2023-11-19T06:40:06;98059.69;;;7.96
81399;BMP280;70853;50.074;10.224;2023-11-19T06:42:34;98070.50;;;7.98
81399;BMP280;70853;50.074;10.224;2023-11-19T06:45:00;98065.59;;;8.03
81399;BMP280;70853;50.074;10.224;2023-11-19T06:47:26;98066.28;;;8.03
81399;BMP280;70853;50.074;10.224;2023-11-19T06:49:55;98061.69;;;8.04
81399;BMP280;70853;50.074;10.224;2023-11-19T06:52:21;98070.97;;;8.10
81399;BMP280;70853;50.074;10.224;2023-11-19T06:54:47;98063.22;;;8.12
81399;BMP280;70853;50.074;10.224;2023-11-19T06:57:13;98075.31;;;8.21
81399;BMP280;70853;50.074;10.224;2023-11-19T06:59:39;98070.72;;;8.21
81399;BMP280;70853;50.074;10.224;2023-11-19T07:02:06;98073.78;;;8.25
81399;BMP280;70853;50.074;10.224;2023-11-19T07:04:31;98069.91;;;8.26
81399;BMP280;70853;50.074;10.224;2023-11-19T07:06:58;98070.09;;;8.28
81399;BMP280;70853;50.074;10.224;2023-11-19T07:09:25;98071.72;;;8.31
81399;BMP280;70853;50.074;10.224;2023-11-19T07:11:50;98077.22;;;8.33
81399;BMP280;70853;50.074;10.224;2023-11-19T07:14:17;98089.19;;;8.40
81399;BMP280;70853;50.074;10.224;2023-11-19T07:16:43;98090.06;;;8.43
81399;BMP280;70853;50.074;10.224;2023-11-19T07:19:09;98100.78;;;8.50
81399;BMP280;70853;50.074;10.224;2023-11-19T07:21:35;98104.31;;;8.53
81399;BMP280;70853;50.074;10.224;2023-11-19T07:24:05;98084.63;;;8.48
81399;BMP280;70853;50.074;10.224;2023-11-19T07:26:31;98101.34;;;8.56
81399;BMP280;70853;50.074;10.224;2023-11-19T07:28:57;98104.78;;;8.64
81399;BMP280;70853;50.074;10.224;2023-11-19T07:31:23;98100.59;;;8.69
81399;BMP280;70853;50.074;10.224;2023-11-19T07:33:49;98100.09;;;8.70
81399;BMP280;70853;50.074;10.224;2023-11-19T07:36:15;98089.78;;;8.74
81399;BMP280;70853;50.074;10.224;2023-11-19T07:38:41;98095.72;;;8.81
81399;BMP280;70853;50.074;10.224;2023-11-19T07:41:07;98095.88;;;8.83
81399;BMP280;70853;50.074;10.224;2023-11-19T07:43:39;98106.53;;;8.83
81399;BMP280;70853;50.074;10.224;2023-11-19T07:46:06;98106.94;;;8.87
81399;BMP280;70853;50.074;10.224;2023-11-19T07:48:35;98106.00;;;8.84
81399;BMP280;70853;50.074;10.224;2023-11-19T07:51:01;98103.75;;;8.88
81399;BMP280;70853;50.074;10.224;2023-11-19T07:53:27;98117.97;;;8.91
81399;BMP280;70853;50.074;10.224;2023-11-19T07:55:53;98108.31;;;9.01
81399;BMP280;70853;50.074;10.224;2023-11-19T07:58:19;98109.56;;;9.07
81399;BMP280;70853;50.074;10.224;2023-11-19T08:00:45;98111.69;;;9.09
81399;BMP280;70853;50.074;10.224;2023-11-19T08:03:10;98110.66;;;9.12
81399;BMP280;70853;50.074;10.224;2023-11-19T08:05:36;98108.56;;;9.18
81399;BMP280;70853;50.074;10.224;2023-11-19T08:08:02;98114.94;;;9.15
81399;BMP280;70853;50.074;10.224;2023-11-19T08:10:30;98114.78;;;9.21
81399;BMP280;70853;50.074;10.224;2023-11-19T08:12:58;98095.63;;;9.22
81399;BMP280;70853;50.074;10.224;2023-11-19T08:15:24;98094.59;;;9.25
81399;BMP280;70853;50.074;10.224;2023-11-19T08:17:49;98096.94;;;9.29
81399;BMP280;70853;50.074;10.224;2023-11-19T08:20:15;98097.47;;;9.27
81399;BMP280;70853;50.074;10.224;2023-11-19T08:22:40;98105.31;;;9.40
81399;BMP280;70853;50.074;10.224;2023-11-19T08:25:07;98107.84;;;9.46
81399;BMP280;70853;50.074;10.224;2023-11-19T08:27:33;98114.63;;;9.54
81399;BMP280;70853;50.074;10.224;2023-11-19T08:29:59;98116.09;;;9.63
81399;BMP280;70853;50.074;10.224;2023-11-19T08:32:26;98121.06;;;9.67
81399;BMP280;70853;50.074;10.224;2023-11-19T08:34:52;98115.97;;;9.76
81399;BMP280;70853;50.074;10.224;2023-11-19T08:37:18;98120.25;;;9.79
81399;BMP280;70853;50.074;10.224;2023-11-19T08:39:46;98110.63;;;9.84
81399;BMP280;70853;50.074;10.224;2023-11-19T08:42:12;98104.25;;;9.87
81399;BMP280;70853;50.074;10.224;2023-11-19T08:44:38;98101.28;;;9.90
81399;BMP280;70853;50.074;10.224;2023-11-19T08:47:04;98100.06;;;9.99
81399;BMP280;70853;50.074;10.224;2023-11-19T08:49:30;98093.13;;;10.11
81399;BMP280;70853;50.074;10.224;2023-11-19T08:51:56;98092.09;;;10.14
81399;BMP280;70853;50.074;10.224;2023-11-19T08:54:21;98086.94;;;10.16
81399;BMP280;70853;50.074;10.224;2023-11-19T08:56:48;98094.06;;;10.21
81399;BMP280;70853;50.074;10.224;2023-11-19T08:59:13;98094.59;;;10.27
81399;BMP280;70853;50.074;10.224;2023-11-19T09:01:40;98100.84;;;10.30
81399;BMP280;70853;50.074;10.224;2023-11-19T09:04:06;98096.91;;;10.39
81399;BMP280;70853;50.074;10.224;2023-11-19T09:06:32;98088.03;;;10.44
81399;BMP280;70853;50.074;10.224;2023-11-19T09:08:58;98091.59;;;10.54
81399;BMP280;70853;50.074;10.224;2023-11-19T09:11:28;98086.25;;;10.54
81399;BMP280;70853;50.074;10.224;2023-11-19T09:13:53;98091.75;;;10.71
81399;BMP280;70853;50.074;10.224;2023-11-19T09:16:19;98102.44;;;10.79
81399;BMP280;70853;50.074;10.224;2023-11-19T09:18:44;98111.16;;;10.87
81399;BMP280;70853;50.074;10.224;2023-11-19T09:21:11;98114.16;;;10.98
81399;BMP280;70853;50.074;10.224;2023-11-19T09:23:36;98098.16;;;10.98
81399;BMP280;70853;50.074;10.224;2023-11-19T09:26:05;98108.81;;;11.13
81399;BMP280;70853;50.074;10.224;2023-11-19T09:28:31;98104.88;;;11.14
81399;BMP280;70853;50.074;10.224;2023-11-19T09:30:57;98107.72;;;11.16
81399;BMP280;70853;50.074;10.224;2023-11-19T09:33:23;98110.22;;;11.14
81399;BMP280;70853;50.074;10.224;2023-11-19T09:35:49;98111.81;;;11.18
81399;BMP280;70853;50.074;10.224;2023-11-19T09:38:15;98082.47;;;11.10
81399;BMP280;70853;50.074;10.224;2023-11-19T09:40:40;98098.66;;;11.20
81399;BMP280;70853;50.074;10.224;2023-11-19T09:43:07;98106.31;;;11.15
81399;BMP280;70853;50.074;10.224;2023-11-19T09:45:47;98101.69;;;11.08
81399;BMP280;70853;50.074;10.224;2023-11-19T09:48:16;98099.56;;;10.99
81399;BMP280;70853;50.074;10.224;2023-11-19T09:50:42;98096.16;;;10.99
81399;BMP280;70853;50.074;10.224;2023-11-19T09:53:07;98104.72;;;10.97
81399;BMP280;70853;50.074;10.224;2023-11-19T09:55:33;98108.31;;;10.92
81399;BMP280;70853;50.074;10.224;2023-11-19T09:58:00;98092.81;;;10.98
81399;BMP280;70853;50.074;10.224;2023-11-19T10:00:27;98094.94;;;11.00
81399;BMP280;70853;50.074;10.224;2023-11-19T10:02:53;98098.31;;;11.00
81399;BMP280;70853;50.074;10.224;2023-11-19T10:05:22;98106.50;;;11.02
81399;BMP280;70853;50.074;10.224;2023-11-19T10:07:49;98110.59;;;11.03
81399;BMP280;70853;50.074;10.224;2023-11-19T10:10:15;98095.47;;;10.98
81399;BMP280;70853;50.074;10.224;2023-11-19T10:12:47;98094.75;;;11.13
81399;BMP280;70853;50.074;10.224;2023-11-19T10:15:20;98091.88;;;11.19
81399;BMP280;70853;50.074;10.224;2023-11-19T10:17:46;98109.13;;;11.25
81399;BMP280;70853;50.074;10.224;2023-11-19T10:20:11;98080.94;;;11.47
81399;BMP280;70853;50.074;10.224;2023-11-19T10:22:37;98109.03;;;11.55
81399;BMP280;70853;50.074;10.224;2023-11-19T10:25:04;98115.78;;;11.56
81399;BMP280;70853;50.074;10.224;2023-11-19T10:27:30;98106.47;;;11.73
81399;BMP280;70853;50.074;10.224;2023-11-19T10:29:59;98106.22;;;11.86
81399;BMP280;70853;50.074;10.224;2023-11-19T10:32:25;98094.31;;;11.79
81399;BMP280;70853;50.074;10.224;2023-11-19T10:34:51;98095.91;;;11.75
81399;BMP280;70853;50.074;10.224;2023-11-19T10:37:30;98106.59;;;11.75
81399;BMP280;70853;50.074;10.224;2023-11-19T10:39:57;98108.97;;;11.71
81399;BMP280;70853;50.074;10.224;2023-11-19T10:42:23;98101.88;;;11.66
81399;BMP280;70853;50.074;10.224;2023-11-19T10:44:49;98105.41;;;11.68
81399;BMP280;70853;50.074;10.224;2023-11-19T10:47:15;98100.69;;;11.84
81399;BMP280;70853;50.074;10.224;2023-11-19T10:49:44;98092.59;;;11.99
81399;BMP280;70853;50.074;10.224;2023-11-19T10:52:11;98095.50;;;12.18
81399;BMP280;70853;50.074;10.224;2023-11-19T10:54:43;98085.75;;;12.38
81399;BMP280;70853;50.074;10.224;2023-11-19T10:57:11;98091.28;;;12.57
81399;BMP280;70853;50.074;10.224;2023-11-19T10:59:38;98101.47;;;12.76
81399;BMP280;70853;50.074;10.224;2023-11-19T11:02:07;98093.22;;;12.81
81399;BMP280;70853;50.074;10.224;2023-11-19T11:04:39;98086.13;;;12.76
81399;BMP280;70853;50.074;10.224;2023-11-19T11:07:05;98089.28;;;12.82
81399;BMP280;70853;50.074;10.224;2023-11-19T11:09:32;98084.38;;;12.89
81399;BMP280;70853;50.074;10.224;2023-11-19T11:11:59;98073.06;;;12.98
81399;BMP280;70853;50.074;10.224;2023-11-19T11:14:26;98070.03;;;13.11
81399;BMP280;70853;50.074;10.224;2023-11-19T11:16:53;98098.00;;;13.17
81399;BMP280;70853;50.074;10.224;2023-11-19T11:19:19;98067.28;;;13.18
81399;BMP280;70853;50.074;10.224;2023-11-19T11:21:50;98075.00;;;13.14
81399;BMP280;70853;50.074;10.224;2023-11-19T11:27:16;98082.56;;;13.25
81399;BMP280;70853;50.074;10.224;2023-11-19T11:33:06;98072.66;;;13.18
81399;BMP280;70853;50.074;10.224;2023-11-19T11:35:46;98067.91;;;13.26
81399;BMP280;70853;50.074;10.224;2023-11-19T11:44:05;98058.25;;;13.41
81399;BMP280;70853;50.074;10.224;2023-11-19T11:54:11;98072.56;;;13.80
81399;BMP280;70853;50.074;10.224;2023-11-19T12:02:11;98068.47;;;13.79
81399;BMP280;70853;50.074;10.224;2023-11-19T12:04:38;98033.97;;;13.65
81399;BMP280;70853;50.074;10.224;2023-11-19T12:07:13;98043.72;;;13.61
81399;BMP280;70853;50.074;10.224;2023-11-19T12:09:46;98049.50;;;13.57
81399;BMP280;70853;50.074;10.224;2023-11-19T12:12:23;98052.72;;;13.39
81399;BMP280;70853;50.074;10.224;2023-11-19T12:20:02;98057.06;;;13.24
81399;BMP280;70853;50.074;10.224;2023-11-19T12:22:28;98055.31;;;13.37
81399;BMP280;70853;50.074;10.224;2023-11-19T12:24:54;98063.06;;;13.42
81399;BMP280;70853;50.074;10.224;2023-11-19T12:27:21;98048.53;;;13.36
81399;BMP280;70853;50.074;10.224;2023-11-19T12:29:50;98025.63;;;13.25
81399;BMP280;70853;50.074;10.224;2023-11-19T12:32:16;98025.91;;;13.29
81399;BMP280;70853;50.074;10.224;2023-11-19T12:34:41;98053.72;;;13.34
81399;BMP280;70853;50.074;10.224;2023-11-19T12:37:08;98046.34;;;13.24
81399;BMP280;70853;50.074;10.224;2023-11-19T12:39:35;98041.41;;;13.04
81399;BMP280;70853;50.074;10.224;2023-11-19T12:42:01;98049.75;;;13.08
81399;BMP280;70853;50.074;10.224;2023-11-19T12:44:26;98034.94;;;13.07
81399;BMP280;70853;50.074;10.224;2023-11-19T12:47:05;98044.28;;;13.15
81399;BMP280;70853;50.074;10.224;2023-11-19T12:49:37;98038.69;;;13.21
81399;BMP280;70853;50.074;10.224;2023-11-19T12:52:11;98029.66;;;13.43
81399;BMP280;70853;50.074;10.224;2023-11-19T12:54:38;98029.31;;;13.66
81399;BMP280;70853;50.074;10.224;2023-11-19T12:57:04;98025.38;;;13.57
81399;BMP280;70853;50.074;10.224;2023-11-19T12:59:31;98028.16;;;13.50
81399;BMP280;70853;50.074;10.224;2023-11-19T13:01:57;98026.81;;;13.41
81399;BMP280;70853;50.074;10.224;2023-11-19T13:04:27;98014.94;;;13.35
81399;BMP280;70853;50.074;10.224;2023-11-19T13:06:53;98007.66;;;13.45
81399;BMP280;70853;50.074;10.224;2023-11-19T13:09:28;98015.28;;;13.75
81399;BMP280;70853;50.074;10.224;2023-11-19T13:11:55;98026.34;;;13.89
81399;BMP280;70853;50.074;10.224;2023-11-19T13:14:22;98021.94;;;13.84
81399;BMP280;70853;50.074;10.224;2023-11-19T13:16:49;98031.56;;;13.87
81399;BMP280;70853;50.074;10.224;2023-11-19T13:19:15;98023.00;;;14.07
81399;BMP280;70853;50.074;10.224;2023-11-19T13:21:45;98020.16;;;14.05
81399;BMP280;70853;50.074;10.224;2023-11-19T13:24:13;98021.81;;;13.91
81399;BMP280;70853;50.074;10.224;2023-11-19T13:26:38;98002.06;;;13.87
81399;BMP280;70853;50.074;10.224;2023-11-19T13:29:04;98012.09;;;13.59
81399;BMP280;70853;50.074;10.224;2023-11-19T13:31:30;98018.72;;;13.58
81399;BMP280;70853;50.074;10.224;2023-11-19T13:33:55;98006.06;;;13.68
81399;BMP280;70853;50.074;10.224;2023-11-19T13:36:23;98012.38;;;13.90
81399;BMP280;70853;50.074;10.224;2023-11-19T13:38:49;98001.09;;;13.92
81399;BMP280;70853;50.074;10.224;2023-11-19T13:41:14;98006.03;;;14.05
81399;BMP280;70853;50.074;10.224;2023-11-19T13:43:40;97997.22;;;13.76
81399;BMP280;70853;50.074;10.224;2023-11-19T13:46:06;97999.50;;;13.52
81399;BMP280;70853;50.074;10.224;2023-11-19T13:48:31;97997.19;;;13.39
81399;BMP280;70853;50.074;10.224;2023-11-19T13:50:57;98001.75;;;13.46
81399;BMP280;70853;50.074;10.224;2023-11-19T13:53:23;98012.22;;;13.25
81399;BMP280;70853;50.074;10.224;2023-11-19T13:55:49;98007.09;;;13.19
81399;BMP280;70853;50.074;10.224;2023-11-19T13:58:15;98012.16;;;13.15
81399;BMP280;70853;50.074;10.224;2023-11-19T14:08:14;98004.94;;;13.72
81399;BMP280;70853;50.074;10.224;2023-11-19T14:10:40;97999.03;;;13.63
81399;BMP280;70853;50.074;10.224;2023-11-19T14:13:06;98002.53;;;13.39
81399;BMP280;70853;50.074;10.224;2023-11-19T14:15:32;97999.31;;;13.41
81399;BMP280;70853;50.074;10.224;2023-11-19T14:17:58;98015.00;;;13.44
81399;BMP280;70853;50.074;10.224;2023-11-19T14:20:23;98006.19;;;13.61
81399;BMP280;70853;50.074;10.224;2023-11-19T14:22:49;98004.09;;;13.69
81399;BMP280;70853;50.074;10.224;2023-11-19T14:25:16;98009.22;;;13.84
81399;BMP280;70853;50.074;10.224;2023-11-19T14:27:43;98010.72;;;13.68
81399;BMP280;70853;50.074;10.224;2023-11-19T14:30:10;97999.13;;;13.65
81399;BMP280;70853;50.074;10.224;2023-11-19T14:32:37;97997.31;;;13.68
81399;BMP280;70853;50.074;10.224;2023-11-19T14:35:04;97993.94;;;13.67
81399;BMP280;70853;50.074;10.224;2023-11-19T14:37:30;97990.81;;;13.61
81399;BMP280;70853;50.074;10.224;2023-11-19T14:39:57;98007.09;;;13.46
81399;BMP280;70853;50.074;10.224;2023-11-19T14:42:26;98004.03;;;13.50